sensor_id;sensor_type;location;lat;lon;timestamp;pressure;altitude;pressure_sealevel;temperature;humidity
35647;BME280;28680;45.642;13.756;2023-06-26T00:01:34;101152.47;;;27.41;100.00
35647;BME280;28680;45.642;13.756;2023-06-26T00:04:01;101159.00;;;27.52;100.00
35647;BME280;28680;45.642;13.756;2023-06-26T00:06:27;101160.41;;;27.36;100.00
35647;BME280;28680;45.642;13.756;2023-06-26T00:08:54;101158.34;;;27.75;100.00
35647;BME280;28680;45.642;13.756;2023-06-26T00:11:22;101157.88;;;27.59;100.00
35647;BME280;28680;45.642;13.756;2023-06-26T00:13:48;101150.84;;;27.58;100.00
35647;BME280;28680;45.642;13.756;2023-06-26T00:16:14;101156.38;;;27.89;100.00
35647;BME280;28680;45.642;13.756;2023-06-26T00:18:40;101158.22;;;27.70;97.86
35647;BME280;28680;45.642;13.756;2023-06-26T00:21:06;101155.66;;;27.75;100.00
35647;BME280;28680;45.642;13.756;2023-06-26T00:23:32;101151.59;;;27.47;99.73
35647;BME280;28680;45.642;13.756;2023-06-26T00:26:05;101161.44;;;27.35;100.00
35647;BME280;28680;45.642;13.756;2023-06-26T00:28:31;101158.19;;;27.51;100.00
35647;BME280;28680;45.642;13.756;2023-06-26T00:30:57;101153.09;;;27.61;100.00
35647;BME280;28680;45.642;13.756;2023-06-26T00:33:23;101154.38;;;27.77;100.00
35647;BME280;28680;45.642;13.756;2023-06-26T00:35:49;101154.44;;;27.71;99.36
35647;BME280;28680;45.642;13.756;2023-06-26T00:38:15;101157.59;;;27.49;100.00
35647;BME280;28680;45.642;13.756;2023-06-26T00:40:41;101155.09;;;27.48;100.00
35647;BME280;28680;45.642;13.756;2023-06-26T00:43:07;101156.53;;;27.50;100.00
35647;BME280;28680;45.642;13.756;2023-06-26T00:45:33;101152.09;;;27.37;100.00
35647;BME280;28680;45.642;13.756;2023-06-26T00:47:58;101150.69;;;27.53;100.00
35647;BME280;28680;45.642;13.756;2023-06-26T00:50:25;101150.75;;;27.21;100.00
35647;BME280;28680;45.642;13.756;2023-06-26T00:52:52;101145.97;;;27.67;100.00
35647;BME280;28680;45.642;13.756;2023-06-26T00:55:20;101148.38;;;27.57;100.00
35647;BME280;28680;45.642;13.756;2023-06-26T00:57:46;101148.31;;;27.82;100.00
35647;BME280;28680;45.642;13.756;2023-06-26T01:00:13;101137.16;;;27.60;100.00
35647;BME280;28680;45.642;13.756;2023-06-26T01:02:39;101146.50;;;27.57;100.00
35647;BME280;28680;45.642;13.756;2023-06-26T01:05:06;101150.78;;;27.84;100.00
35647;BME280;28680;45.642;13.756;2023-06-26T01:07:34;101141.19;;;27.69;99.29
35647;BME280;28680;45.642;13.756;2023-06-26T01:10:04;101147.41;;;27.88;100.00
35647;BME280;28680;45.642;13.756;2023-06-26T01:12:34;101151.97;;;27.88;98.51
35647;BME280;28680;45.642;13.756;2023-06-26T01:15:02;101144.03;;;27.56;98.43
35647;BME280;28680;45.642;13.756;2023-06-26T01:17:28;101144.72;;;27.51;98.80
35647;BME280;28680;45.642;13.756;2023-06-26T01:19:59;101153.34;;;27.35;98.03
35647;BME280;28680;45.642;13.756;2023-06-26T01:28:25;101140.88;;;27.40;100.00
35647;BME280;28680;45.642;13.756;2023-06-26T01:30:52;101140.78;;;27.29;99.21
35647;BME280;28680;45.642;13.756;2023-06-26T01:33:19;101145.22;;;27.41;99.17
35647;BME280;28680;45.642;13.756;2023-06-26T01:35:45;101140.88;;;27.15;100.00
35647;BME280;28680;45.642;13.756;2023-06-26T01:38:22;101133.81;;;26.89;100.00
35647;BME280;28680;45.642;13.756;2023-06-26T01:40:54;101134.59;;;27.21;100.00
35647;BME280;28680;45.642;13.756;2023-06-26T01:51:38;101124.13;;;27.07;100.00
35647;BME280;28680;45.642;13.756;2023-06-26T01:54:07;101126.63;;;26.83;100.00
35647;BME280;28680;45.642;13.756;2023-06-26T01:56:35;101121.78;;;26.92;100.00
35647;BME280;28680;45.642;13.756;2023-06-26T01:59:04;101125.72;;;26.64;100.00
35647;BME280;28680;45.642;13.756;2023-06-26T02:01:32;101122.41;;;26.55;100.00
35647;BME280;28680;45.642;13.756;2023-06-26T02:03:59;101123.84;;;26.64;100.00
35647;BME280;28680;45.642;13.756;2023-06-26T02:06:25;101123.03;;;26.57;100.00
35647;BME280;28680;45.642;13.756;2023-06-26T02:08:51;101128.69;;;26.42;100.00
35647;BME280;28680;45.642;13.756;2023-06-26T02:11:17;101132.63;;;26.47;100.00
35647;BME280;28680;45.642;13.756;2023-06-26T02:13:43;101124.81;;;26.77;100.00
35647;BME280;28680;45.642;13.756;2023-06-26T02:16:09;101128.84;;;26.61;100.00
35647;BME280;28680;45.642;13.756;2023-06-26T02:18:34;101136.03;;;26.29;100.00
35647;BME280;28680;45.642;13.756;2023-06-26T02:21:03;101132.16;;;26.18;100.00
35647;BME280;28680;45.642;13.756;2023-06-26T02:23:29;101126.81;;;26.04;100.00
35647;BME280;28680;45.642;13.756;2023-06-26T02:25:55;101141.78;;;25.94;100.00
35647;BME280;28680;45.642;13.756;2023-06-26T02:28:21;101140.47;;;26.03;100.00
35647;BME280;28680;45.642;13.756;2023-06-26T02:30:46;101136.09;;;26.15;100.00
35647;BME280;28680;45.642;13.756;2023-06-26T02:33:12;101138.44;;;26.05;100.00
35647;BME280;28680;45.642;13.756;2023-06-26T02:35:38;101135.34;;;25.95;100.00
35647;BME280;28680;45.642;13.756;2023-06-26T02:38:04;101145.91;;;25.83;100.00
35647;BME280;28680;45.642;13.756;2023-06-26T02:40:30;101139.75;;;25.69;100.00
35647;BME280;28680;45.642;13.756;2023-06-26T02:42:56;101143.19;;;25.90;100.00
35647;BME280;28680;45.642;13.756;2023-06-26T02:45:21;101144.84;;;25.91;100.00
35647;BME280;28680;45.642;13.756;2023-06-26T02:47:47;101141.59;;;25.75;100.00
35647;BME280;28680;45.642;13.756;2023-06-26T02:50:13;101150.47;;;25.76;100.00
35647;BME280;28680;45.642;13.756;2023-06-26T02:52:40;101135.00;;;25.64;100.00
35647;BME280;28680;45.642;13.756;2023-06-26T02:55:07;101140.38;;;25.71;100.00
35647;BME280;28680;45.642;13.756;2023-06-26T02:57:33;101141.19;;;25.65;100.00
35647;BME280;28680;45.642;13.756;2023-06-26T02:59:58;101141.34;;;25.97;100.00
35647;BME280;28680;45.642;13.756;2023-06-26T03:02:24;101144.91;;;25.71;100.00
35647;BME280;28680;45.642;13.756;2023-06-26T03:04:50;101140.81;;;25.48;100.00
35647;BME280;28680;45.642;13.756;2023-06-26T03:07:17;101145.56;;;25.53;100.00
35647;BME280;28680;45.642;13.756;2023-06-26T03:09:43;101145.78;;;25.51;100.00
35647;BME280;28680;45.642;13.756;2023-06-26T03:12:09;101140.19;;;25.46;100.00
35647;BME280;28680;45.642;13.756;2023-06-26T03:14:35;101145.78;;;25.51;100.00
35647;BME280;28680;45.642;13.756;2023-06-26T03:17:00;101155.91;;;25.49;100.00
35647;BME280;28680;45.642;13.756;2023-06-26T03:19:29;101143.28;;;25.49;100.00
35647;BME280;28680;45.642;13.756;2023-06-26T03:21:55;101142.25;;;25.44;100.00
35647;BME280;28680;45.642;13.756;2023-06-26T03:24:21;101146.41;;;25.40;100.00
35647;BME280;28680;45.642;13.756;2023-06-26T03:26:47;101147.88;;;25.36;100.00
35647;BME280;28680;45.642;13.756;2023-06-26T03:29:13;101149.13;;;25.33;100.00
35647;BME280;28680;45.642;13.756;2023-06-26T03:31:39;101148.69;;;25.29;100.00
35647;BME280;28680;45.642;13.756;2023-06-26T03:34:05;101143.50;;;25.55;100.00
35647;BME280;28680;45.642;13.756;2023-06-26T03:36:31;101148.66;;;25.49;100.00
35647;BME280;28680;45.642;13.756;2023-06-26T03:38:57;101154.69;;;25.32;100.00
35647;BME280;28680;45.642;13.756;2023-06-26T03:41:23;101155.50;;;25.52;100.00
35647;BME280;28680;45.642;13.756;2023-06-26T03:43:49;101155.47;;;25.65;100.00
35647;BME280;28680;45.642;13.756;2023-06-26T03:46:15;101156.25;;;25.99;100.00
35647;BME280;28680;45.642;13.756;2023-06-26T03:48:41;101164.53;;;25.78;100.00
35647;BME280;28680;45.642;13.756;2023-06-26T03:51:07;101166.03;;;25.60;100.00
35647;BME280;28680;45.642;13.756;2023-06-26T03:53:34;101167.03;;;25.66;100.00
35647;BME280;28680;45.642;13.756;2023-06-26T03:56:00;101168.28;;;25.70;100.00
35647;BME280;28680;45.642;13.756;2023-06-26T03:58:26;101170.13;;;25.63;100.00
35647;BME280;28680;45.642;13.756;2023-06-26T04:00:51;101173.88;;;25.55;100.00
35647;BME280;28680;45.642;13.756;2023-06-26T04:03:18;101173.44;;;25.72;100.00
35647;BME280;28680;45.642;13.756;2023-06-26T04:05:44;101177.00;;;25.45;100.00
35647;BME280;28680;45.642;13.756;2023-06-26T04:08:10;101172.19;;;25.81;100.00
35647;BME280;28680;45.642;13.756;2023-06-26T04:10:36;101176.63;;;26.20;100.00
35647;BME280;28680;45.642;13.756;2023-06-26T04:13:02;101183.13;;;25.99;100.00
35647;BME280;28680;45.642;13.756;2023-06-26T04:15:28;101179.19;;;25.88;100.00
35647;BME280;28680;45.642;13.756;2023-06-26T04:17:53;101173.44;;;25.65;100.00
35647;BME280;28680;45.642;13.756;2023-06-26T04:20:19;101174.50;;;25.51;100.00
35647;BME280;28680;45.642;13.756;2023-06-26T04:22:45;101179.06;;;25.43;100.00
35647;BME280;28680;45.642;13.756;2023-06-26T04:25:11;101169.75;;;25.46;100.00
35647;BME280;28680;45.642;13.756;2023-06-26T04:27:37;101175.47;;;25.96;100.00
35647;BME280;28680;45.642;13.756;2023-06-26T04:30:04;101173.19;;;25.86;100.00
35647;BME280;28680;45.642;13.756;2023-06-26T04:32:30;101177.75;;;25.73;100.00
35647;BME280;28680;45.642;13.756;2023-06-26T04:34:56;101177.47;;;26.14;100.00
35647;BME280;28680;45.642;13.756;2023-06-26T04:37:22;101178.53;;;26.52;100.00
35647;BME280;28680;45.642;13.756;2023-06-26T04:39:50;101177.69;;;26.96;100.00
35647;BME280;28680;45.642;13.756;2023-06-26T04:42:16;101184.41;;;26.42;100.00
35647;BME280;28680;45.642;13.756;2023-06-26T04:44:42;101185.78;;;26.06;100.00
35647;BME280;28680;45.642;13.756;2023-06-26T04:47:08;101189.75;;;25.83;100.00
35647;BME280;28680;45.642;13.756;2023-06-26T04:49:34;101197.63;;;25.65;100.00
35647;BME280;28680;45.642;13.756;2023-06-26T04:52:00;101190.81;;;25.62;100.00
35647;BME280;28680;45.642;13.756;2023-06-26T04:54:27;101194.97;;;25.58;100.00
35647;BME280;28680;45.642;13.756;2023-06-26T04:56:53;101191.44;;;25.51;100.00
35647;BME280;28680;45.642;13.756;2023-06-26T04:59:20;101190.44;;;25.39;100.00
35647;BME280;28680;45.642;13.756;2023-06-26T05:01:45;101188.56;;;25.46;100.00
35647;BME280;28680;45.642;13.756;2023-06-26T05:04:14;101181.09;;;25.48;100.00
35647;BME280;28680;45.642;13.756;2023-06-26T05:06:41;101190.22;;;25.47;100.00
35647;BME280;28680;45.642;13.756;2023-06-26T05:09:07;101183.81;;;25.41;100.00
35647;BME280;28680;45.642;13.756;2023-06-26T05:11:33;101183.19;;;25.39;100.00
35647;BME280;28680;45.642;13.756;2023-06-26T05:13:59;101187.31;;;25.42;100.00
35647;BME280;28680;45.642;13.756;2023-06-26T05:16:25;101183.00;;;25.41;100.00
35647;BME280;28680;45.642;13.756;2023-06-26T05:18:51;101183.19;;;25.39;100.00
35647;BME280;28680;45.642;13.756;2023-06-26T05:21:18;101182.38;;;25.32;100.00
35647;BME280;28680;45.642;13.756;2023-06-26T05:23:45;101184.03;;;25.40;100.00
35647;BME280;28680;45.642;13.756;2023-06-26T05:26:13;101182.75;;;25.42;100.00
35647;BME280;28680;45.642;13.756;2023-06-26T05:28:39;101178.03;;;25.44;100.00
35647;BME280;28680;45.642;13.756;2023-06-26T05:31:05;101182.97;;;25.47;100.00
35647;BME280;28680;45.642;13.756;2023-06-26T05:33:35;101180.09;;;25.49;100.00
35647;BME280;28680;45.642;13.756;2023-06-26T05:36:04;101184.44;;;25.50;100.00
35647;BME280;28680;45.642;13.756;2023-06-26T05:38:31;101185.84;;;25.59;100.00
35647;BME280;28680;45.642;13.756;2023-06-26T05:40:58;101185.03;;;25.59;100.00
35647;BME280;28680;45.642;13.756;2023-06-26T05:43:24;101180.72;;;25.58;100.00
35647;BME280;28680;45.642;13.756;2023-06-26T05:45:50;101186.88;;;25.65;100.00
35647;BME280;28680;45.642;13.756;2023-06-26T05:48:16;101182.56;;;25.64;100.00
35647;BME280;28680;45.642;13.756;2023-06-26T05:50:42;101192.66;;;25.75;100.00
35647;BME280;28680;45.642;13.756;2023-06-26T05:53:09;101187.09;;;25.77;100.00
35647;BME280;28680;45.642;13.756;2023-06-26T05:55:36;101187.50;;;25.80;100.00
35647;BME280;28680;45.642;13.756;2023-06-26T05:58:03;101185.81;;;25.73;100.00
35647;BME280;28680;45.642;13.756;2023-06-26T06:00:29;101187.50;;;25.74;100.00
35647;BME280;28680;45.642;13.756;2023-06-26T06:02:55;101191.22;;;25.86;100.00
35647;BME280;28680;45.642;13.756;2023-06-26T06:05:24;101189.13;;;26.01;100.00
35647;BME280;28680;45.642;13.756;2023-06-26T06:07:50;101186.97;;;26.23;100.00
35647;BME280;28680;45.642;13.756;2023-06-26T06:10:16;101187.59;;;26.19;100.00
35647;BME280;28680;45.642;13.756;2023-06-26T06:12:42;101183.66;;;26.21;100.00
35647;BME280;28680;45.642;13.756;2023-06-26T06:15:08;101192.13;;;26.32;100.00
35647;BME280;28680;45.642;13.756;2023-06-26T06:17:34;101191.25;;;26.38;100.00
35647;BME280;28680;45.642;13.756;2023-06-26T06:20:00;101189.19;;;26.33;100.00
35647;BME280;28680;45.642;13.756;2023-06-26T06:22:26;101191.72;;;26.28;100.00
35647;BME280;28680;45.642;13.756;2023-06-26T06:24:52;101188.56;;;26.31;100.00
35647;BME280;28680;45.642;13.756;2023-06-26T06:27:18;101190.66;;;26.36;100.00
35647;BME280;28680;45.642;13.756;2023-06-26T06:29:44;101189.09;;;26.53;100.00
35647;BME280;28680;45.642;13.756;2023-06-26T06:32:10;101184.38;;;26.49;100.00
35647;BME280;28680;45.642;13.756;2023-06-26T06:34:36;101194.03;;;26.70;100.00
35647;BME280;28680;45.642;13.756;2023-06-26T06:37:03;101190.03;;;26.79;100.00
35647;BME280;28680;45.642;13.756;2023-06-26T06:39:29;101194.88;;;26.57;100.00
35647;BME280;28680;45.642;13.756;2023-06-26T06:41:55;101187.41;;;26.59;100.00
35647;BME280;28680;45.642;13.756;2023-06-26T06:44:21;101188.06;;;26.54;100.00
35647;BME280;28680;45.642;13.756;2023-06-26T06:46:48;101179.97;;;26.61;100.00
35647;BME280;28680;45.642;13.756;2023-06-26T06:49:14;101184.13;;;26.63;100.00
35647;BME280;28680;45.642;13.756;2023-06-26T06:51:39;101184.34;;;26.62;100.00
35647;BME280;28680;45.642;13.756;2023-06-26T06:54:05;101181.97;;;26.72;100.00
35647;BME280;28680;45.642;13.756;2023-06-26T06:56:31;101176.13;;;26.82;100.00
35647;BME280;28680;45.642;13.756;2023-06-26T06:58:57;101174.91;;;26.78;100.00
35647;BME280;28680;45.642;13.756;2023-06-26T07:01:23;101171.53;;;26.89;100.00
35647;BME280;28680;45.642;13.756;2023-06-26T07:03:49;101178.13;;;26.93;100.00
35647;BME280;28680;45.642;13.756;2023-06-26T07:06:16;101172.72;;;26.93;100.00
35647;BME280;28680;45.642;13.756;2023-06-26T07:08:42;101167.56;;;26.92;100.00
35647;BME280;28680;45.642;13.756;2023-06-26T07:11:08;101175.50;;;27.12;100.00
35647;BME280;28680;45.642;13.756;2023-06-26T07:13:34;101172.28;;;27.28;100.00
35647;BME280;28680;45.642;13.756;2023-06-26T07:16:00;101174.31;;;27.33;100.00
35647;BME280;28680;45.642;13.756;2023-06-26T07:18:26;101175.25;;;27.45;100.00
35647;BME280;28680;45.642;13.756;2023-06-26T07:20:51;101175.09;;;27.40;100.00
35647;BME280;28680;45.642;13.756;2023-06-26T07:23:17;101170.38;;;27.35;100.00
35647;BME280;28680;45.642;13.756;2023-06-26T07:25:43;101171.97;;;27.61;100.00
35647;BME280;28680;45.642;13.756;2023-06-26T07:28:12;101173.41;;;27.64;100.00
35647;BME280;28680;45.642;13.756;2023-06-26T07:30:38;101174.75;;;27.73;100.00
35647;BME280;28680;45.642;13.756;2023-06-26T07:33:05;101165.31;;;27.83;100.00
35647;BME280;28680;45.642;13.756;2023-06-26T07:35:31;101164.72;;;27.80;100.00
35647;BME280;28680;45.642;13.756;2023-06-26T07:37:57;101165.31;;;27.64;100.00
35647;BME280;28680;45.642;13.756;2023-06-26T07:40:23;101168.31;;;27.74;100.00
35647;BME280;28680;45.642;13.756;2023-06-26T07:42:49;101171.47;;;27.71;100.00
35647;BME280;28680;45.642;13.756;2023-06-26T07:45:15;101167.41;;;27.80;100.00
35647;BME280;28680;45.642;13.756;2023-06-26T07:47:41;101169.38;;;27.73;100.00
35647;BME280;28680;45.642;13.756;2023-06-26T07:50:08;101178.66;;;27.77;100.00
35647;BME280;28680;45.642;13.756;2023-06-26T07:52:34;101177.31;;;27.68;100.00
35647;BME280;28680;45.642;13.756;2023-06-26T07:55:00;101178.78;;;27.83;100.00
35647;BME280;28680;45.642;13.756;2023-06-26T07:57:25;101171.81;;;28.00;100.00
35647;BME280;28680;45.642;13.756;2023-06-26T07:59:51;101169.53;;;28.15;100.00
35647;BME280;28680;45.642;13.756;2023-06-26T08:02:17;101179.34;;;28.28;100.00
35647;BME280;28680;45.642;13.756;2023-06-26T08:04:43;101170.19;;;28.29;100.00
35647;BME280;28680;45.642;13.756;2023-06-26T08:07:09;101167.09;;;28.26;100.00
35647;BME280;28680;45.642;13.756;2023-06-26T08:09:35;101168.41;;;28.23;100.00
35647;BME280;28680;45.642;13.756;2023-06-26T08:12:02;101174.97;;;28.27;100.00
35647;BME280;28680;45.642;13.756;2023-06-26T08:14:28;101172.09;;;28.41;100.00
35647;BME280;28680;45.642;13.756;2023-06-26T08:16:54;101171.38;;;28.33;100.00
35647;BME280;28680;45.642;13.756;2023-06-26T08:19:20;101178.81;;;28.38;100.00
35647;BME280;28680;45.642;13.756;2023-06-26T08:21:47;101174.25;;;28.50;100.00
35647;BME280;28680;45.642;13.756;2023-06-26T08:24:13;101180.72;;;28.49;100.00
35647;BME280;28680;45.642;13.756;2023-06-26T08:26:39;101181.25;;;28.58;100.00
35647;BME280;28680;45.642;13.756;2023-06-26T08:29:05;101174.06;;;28.52;100.00
35647;BME280;28680;45.642;13.756;2023-06-26T08:31:37;101176.75;;;28.52;100.00
35647;BME280;28680;45.642;13.756;2023-06-26T08:34:05;101173.63;;;28.55;100.00
35647;BME280;28680;45.642;13.756;2023-06-26T08:36:31;101172.25;;;28.64;100.00
35647;BME280;28680;45.642;13.756;2023-06-26T08:38:58;101166.06;;;28.75;100.00
35647;BME280;28680;45.642;13.756;2023-06-26T08:41:24;101172.88;;;28.78;100.00
35647;BME280;28680;45.642;13.756;2023-06-26T08:43:50;101158.53;;;28.77;100.00
35647;BME280;28680;45.642;13.756;2023-06-26T08:46:20;101162.28;;;28.76;100.00
35647;BME280;28680;45.642;13.756;2023-06-26T08:48:54;101160.66;;;28.75;100.00
35647;BME280;28680;45.642;13.756;2023-06-26T08:51:24;101158.66;;;28.83;100.00
35647;BME280;28680;45.642;13.756;2023-06-26T08:54:00;101165.25;;;28.87;100.00
35647;BME280;28680;45.642;13.756;2023-06-26T08:56:36;101163.38;;;28.87;100.00
35647;BME280;28680;45.642;13.756;2023-06-26T08:59:04;101167.25;;;28.91;100.00
35647;BME280;28680;45.642;13.756;2023-06-26T09:01:32;101167.97;;;28.99;100.00
35647;BME280;28680;45.642;13.756;2023-06-26T09:03:58;101161.28;;;29.01;100.00
35647;BME280;28680;45.642;13.756;2023-06-26T09:06:24;101169.00;;;28.97;100.00
35647;BME280;28680;45.642;13.756;2023-06-26T09:08:53;101158.69;;;28.94;100.00
35647;BME280;28680;45.642;13.756;2023-06-26T09:11:19;101161.75;;;28.98;100.00
35647;BME280;28680;45.642;13.756;2023-06-26T09:13:45;101158.00;;;29.11;100.00
35647;BME280;28680;45.642;13.756;2023-06-26T09:38:44;101150.06;;;30.04;100.00
35647;BME280;28680;45.642;13.756;2023-06-26T09:41:10;101148.28;;;30.21;100.00
35647;BME280;28680;45.642;13.756;2023-06-26T09:43:49;101146.63;;;30.20;100.00
35647;BME280;28680;45.642;13.756;2023-06-26T09:46:24;101141.72;;;30.17;100.00
35647;BME280;28680;45.642;13.756;2023-06-26T09:51:49;101134.91;;;30.31;100.00
35647;BME280;28680;45.642;13.756;2023-06-26T09:54:16;101131.50;;;30.65;100.00
35647;BME280;28680;45.642;13.756;2023-06-26T09:56:43;101122.28;;;30.83;100.00
35647;BME280;28680;45.642;13.756;2023-06-26T09:59:09;101113.84;;;30.79;100.00
35647;BME280;28680;45.642;13.756;2023-06-26T10:01:41;101128.78;;;30.65;100.00
35647;BME280;28680;45.642;13.756;2023-06-26T10:04:07;101121.94;;;30.45;100.00
35647;BME280;28680;45.642;13.756;2023-06-26T10:06:41;101125.25;;;30.47;100.00
35647;BME280;28680;45.642;13.756;2023-06-26T10:09:07;101119.06;;;30.52;100.00
35647;BME280;28680;45.642;13.756;2023-06-26T10:12:06;101124.13;;;30.94;100.00
35647;BME280;28680;45.642;13.756;2023-06-26T10:14:37;101117.06;;;31.27;100.00
35647;BME280;28680;45.642;13.756;2023-06-26T10:17:11;101122.16;;;31.45;100.00
35647;BME280;28680;45.642;13.756;2023-06-26T10:19:45;101124.91;;;31.28;100.00
35647;BME280;28680;45.642;13.756;2023-06-26T10:22:18;101122.03;;;31.52;100.00
35647;BME280;28680;45.642;13.756;2023-06-26T10:24:48;101119.25;;;31.30;100.00
35647;BME280;28680;45.642;13.756;2023-06-26T10:27:20;101120.13;;;31.53;100.00
35647;BME280;28680;45.642;13.756;2023-06-26T10:29:53;101124.41;;;31.48;100.00
35647;BME280;28680;45.642;13.756;2023-06-26T10:32:22;101116.09;;;31.77;100.00
35647;BME280;28680;45.642;13.756;2023-06-26T10:34:50;101116.06;;;31.72;100.00
35647;BME280;28680;45.642;13.756;2023-06-26T10:37:16;101120.56;;;31.89;100.00
35647;BME280;28680;45.642;13.756;2023-06-26T10:39:52;101119.19;;;31.64;100.00
35647;BME280;28680;45.642;13.756;2023-06-26T10:42:37;101110.44;;;31.79;100.00
35647;BME280;28680;45.642;13.756;2023-06-26T10:45:19;101110.56;;;31.89;100.00
35647;BME280;28680;45.642;13.756;2023-06-26T10:47:52;101117.13;;;31.93;100.00
35647;BME280;28680;45.642;13.756;2023-06-26T10:50:28;101104.50;;;31.82;100.00
35647;BME280;28680;45.642;13.756;2023-06-26T10:56:04;101106.09;;;31.78;100.00
35647;BME280;28680;45.642;13.756;2023-06-26T11:01:22;101100.91;;;31.54;100.00
35647;BME280;28680;45.642;13.756;2023-06-26T11:06:30;101104.06;;;32.12;100.00
35647;BME280;28680;45.642;13.756;2023-06-26T11:14:18;101095.69;;;32.46;100.00
35647;BME280;28680;45.642;13.756;2023-06-26T11:16:47;101098.94;;;32.16;100.00
35647;BME280;28680;45.642;13.756;2023-06-26T11:19:16;101101.41;;;31.95;100.00
35647;BME280;28680;45.642;13.756;2023-06-26T11:21:42;101096.34;;;32.04;100.00
35647;BME280;28680;45.642;13.756;2023-06-26T11:24:13;101095.78;;;32.02;100.00
35647;BME280;28680;45.642;13.756;2023-06-26T11:26:44;101101.66;;;32.16;100.00
35647;BME280;28680;45.642;13.756;2023-06-26T11:29:11;101099.63;;;32.06;100.00
35647;BME280;28680;45.642;13.756;2023-06-26T11:31:40;101093.97;;;31.85;100.00
35647;BME280;28680;45.642;13.756;2023-06-26T11:34:12;101082.22;;;31.80;100.00
35647;BME280;28680;45.642;13.756;2023-06-26T11:36:42;101094.13;;;31.79;100.00
35647;BME280;28680;45.642;13.756;2023-06-26T11:39:11;101090.50;;;32.17;100.00
35647;BME280;28680;45.642;13.756;2023-06-26T11:41:40;101084.75;;;32.09;100.00
35647;BME280;28680;45.642;13.756;2023-06-26T11:44:09;101077.19;;;32.43;100.00
35647;BME280;28680;45.642;13.756;2023-06-26T11:46:36;101084.28;;;32.49;100.00
35647;BME280;28680;45.642;13.756;2023-06-26T11:49:08;101091.13;;;32.24;100.00
35647;BME280;28680;45.642;13.756;2023-06-26T11:51:35;101095.50;;;32.25;100.00
35647;BME280;28680;45.642;13.756;2023-06-26T11:54:04;101093.22;;;32.44;100.00
35647;BME280;28680;45.642;13.756;2023-06-26T11:56:31;101091.91;;;32.20;100.00
35647;BME280;28680;45.642;13.756;2023-06-26T11:59:02;101091.44;;;32.55;100.00
35647;BME280;28680;45.642;13.756;2023-06-26T12:01:39;101085.44;;;32.86;100.00
35647;BME280;28680;45.642;13.756;2023-06-26T12:04:08;101087.88;;;32.87;100.00
35647;BME280;28680;45.642;13.756;2023-06-26T12:06:37;101082.38;;;33.14;100.00
35647;BME280;28680;45.642;13.756;2023-06-26T12:09:07;101080.19;;;33.11;100.00
35647;BME280;28680;45.642;13.756;2023-06-26T12:11:35;101069.16;;;33.33;100.00
35647;BME280;28680;45.642;13.756;2023-06-26T12:14:02;101078.31;;;33.70;100.00
35647;BME280;28680;45.642;13.756;2023-06-26T12:16:30;101080.50;;;33.78;100.00
35647;BME280;28680;45.642;13.756;2023-06-26T12:19:07;101080.22;;;33.69;100.00
35647;BME280;28680;45.642;13.756;2023-06-26T12:24:19;101080.88;;;33.44;100.00
35647;BME280;28680;45.642;13.756;2023-06-26T12:26:53;101068.69;;;33.57;100.00
35647;BME280;28680;45.642;13.756;2023-06-26T12:29:20;101068.78;;;33.72;100.00
35647;BME280;28680;45.642;13.756;2023-06-26T12:31:52;101072.66;;;33.97;100.00
35647;BME280;28680;45.642;13.756;2023-06-26T12:34:32;101070.28;;;33.48;100.00
35647;BME280;28680;45.642;13.756;2023-06-26T12:37:07;101072.06;;;33.79;100.00
35647;BME280;28680;45.642;13.756;2023-06-26T12:39:56;101072.81;;;33.59;100.00
35647;BME280;28680;45.642;13.756;2023-06-26T12:42:27;101070.47;;;33.26;100.00
35647;BME280;28680;45.642;13.756;2023-06-26T12:44:54;101063.47;;;33.35;100.00
35647;BME280;28680;45.642;13.756;2023-06-26T12:47:28;101064.66;;;33.07;100.00
35647;BME280;28680;45.642;13.756;2023-06-26T12:49:56;101067.47;;;33.22;100.00
35647;BME280;28680;45.642;13.756;2023-06-26T12:52:23;101072.41;;;33.30;100.00
35647;BME280;28680;45.642;13.756;2023-06-26T12:54:54;101063.16;;;33.31;100.00
35647;BME280;28680;45.642;13.756;2023-06-26T12:57:20;101059.75;;;33.09;100.00
35647;BME280;28680;45.642;13.756;2023-06-26T12:59:46;101061.19;;;33.16;100.00
35647;BME280;28680;45.642;13.756;2023-06-26T13:02:12;101060.00;;;33.07;100.00
35647;BME280;28680;45.642;13.756;2023-06-26T13:04:39;101061.84;;;32.91;100.00
35647;BME280;28680;45.642;13.756;2023-06-26T13:07:10;101066.66;;;33.21;100.00
35647;BME280;28680;45.642;13.756;2023-06-26T13:09:37;101060.41;;;33.26;100.00
35647;BME280;28680;45.642;13.756;2023-06-26T13:12:05;101055.59;;;33.38;100.00
35647;BME280;28680;45.642;13.756;2023-06-26T13:14:32;101060.28;;;33.06;100.00
35647;BME280;28680;45.642;13.756;2023-06-26T13:17:00;101050.13;;;32.91;100.00
35647;BME280;28680;45.642;13.756;2023-06-26T13:19:29;101053.91;;;33.27;100.00
35647;BME280;28680;45.642;13.756;2023-06-26T13:21:55;101059.63;;;33.36;100.00
35647;BME280;28680;45.642;13.756;2023-06-26T13:24:22;101061.50;;;33.25;100.00
35647;BME280;28680;45.642;13.756;2023-06-26T13:26:47;101059.28;;;33.17;100.00
35647;BME280;28680;45.642;13.756;2023-06-26T13:29:13;101057.72;;;33.31;100.00